createdAt,value
2022-12-08T00:01:33.575Z,14.73
2022-12-08T00:04:02.722Z,14.77
2022-12-08T00:06:52.802Z,14.30
2022-12-08T00:09:22.752Z,14.10
2022-12-08T00:11:56.082Z,15.40
2022-12-08T00:14:26.210Z,15.13
2022-12-08T00:16:54.483Z,15.18
2022-12-08T00:19:23.493Z,14.98
2022-12-08T00:21:53.015Z,15.60
2022-12-08T00:24:21.636Z,14.52
2022-12-08T00:26:50.317Z,14.20
2022-12-08T00:29:18.600Z,15.20
2022-12-08T00:31:46.772Z,15.68
2022-12-08T00:34:15.079Z,15.27
2022-12-08T00:36:43.718Z,14.25
2022-12-08T00:39:14.839Z,15.10
2022-12-08T00:42:00.411Z,15.32
2022-12-08T00:44:28.546Z,15.82
2022-12-08T00:46:56.919Z,14.00
2022-12-08T00:49:25.198Z,13.90
2022-12-08T00:51:53.487Z,14.75
2022-12-08T00:54:23.944Z,14.55
2022-12-08T00:56:52.158Z,14.73
2022-12-08T00:59:20.319Z,13.88
2022-12-08T01:01:48.721Z,14.27
2022-12-08T01:04:18.724Z,13.43
2022-12-08T01:06:47.061Z,14.60
2022-12-08T01:09:16.178Z,14.05
2022-12-08T01:11:46.065Z,12.77
2022-12-08T01:14:14.910Z,14.38
2022-12-08T01:16:43.722Z,13.63
2022-12-08T01:19:12.901Z,14.38
2022-12-08T01:21:41.368Z,14.10
2022-12-08T01:24:12.728Z,12.85
2022-12-08T01:26:40.918Z,13.35
2022-12-08T01:29:10.516Z,14.05
2022-12-08T01:31:39.154Z,12.32
2022-12-08T01:34:08.082Z,14.48
2022-12-08T01:36:38.321Z,13.88
2022-12-08T01:39:08.957Z,13.73
2022-12-08T01:41:38.855Z,14.40
2022-12-08T01:44:40.228Z,14.38
2022-12-08T01:47:10.486Z,14.45
2022-12-08T01:49:38.652Z,13.68
2022-12-08T01:52:12.054Z,14.13
2022-12-08T01:54:44.738Z,14.15
2022-12-08T01:57:18.463Z,13.75
2022-12-08T01:59:50.354Z,13.77
2022-12-08T02:02:19.895Z,13.77
2022-12-08T02:04:47.929Z,14.38
2022-12-08T02:07:17.316Z,15.07
2022-12-08T02:09:46.176Z,14.18
2022-12-08T02:12:14.386Z,14.40
2022-12-08T02:14:42.514Z,13.48
2022-12-08T02:17:28.881Z,13.43
2022-12-08T02:20:21.121Z,13.73
2022-12-08T02:22:55.915Z,15.77
2022-12-08T02:25:33.024Z,14.18
2022-12-08T02:28:12.258Z,14.75
2022-12-08T02:30:51.343Z,15.43
2022-12-08T02:33:53.033Z,16.27
2022-12-08T02:36:26.106Z,14.82
2022-12-08T02:39:01.982Z,15.60
2022-12-08T02:41:45.013Z,15.55
2022-12-08T02:44:18.869Z,14.35
2022-12-08T02:46:52.634Z,15.15
2022-12-08T02:49:22.246Z,15.75
2022-12-08T02:51:50.299Z,14.65
2022-12-08T02:54:18.444Z,16.50
2022-12-08T02:57:05.154Z,16.17
2022-12-08T02:59:45.801Z,15.80
2022-12-08T03:02:44.563Z,15.73
2022-12-08T03:05:28.681Z,16.52
2022-12-08T03:08:03.566Z,15.15
2022-12-08T03:10:36.647Z,14.57
2022-12-08T03:13:12.349Z,15.52
2022-12-08T03:15:41.081Z,15.57
2022-12-08T03:18:14.197Z,15.73
2022-12-08T03:20:45.834Z,15.05
2022-12-08T03:23:16.991Z,16.95
2022-12-08T03:25:50.581Z,15.60
2022-12-08T03:28:18.605Z,15.23
2022-12-08T03:30:50.265Z,15.63
2022-12-08T03:33:24.097Z,15.68
2022-12-08T03:35:55.021Z,16.85
2022-12-08T03:38:23.271Z,15.45
2022-12-08T03:41:05.201Z,15.75
2022-12-08T03:43:33.127Z,14.80
2022-12-08T03:46:01.180Z,15.68
2022-12-08T03:48:29.614Z,16.00
2022-12-08T03:50:58.902Z,15.95
2022-12-08T03:53:26.832Z,15.80
2022-12-08T03:55:54.953Z,15.52
2022-12-08T03:58:22.908Z,16.00
2022-12-08T04:00:51.055Z,15.93
2022-12-08T04:03:19.116Z,16.90
2022-12-08T04:05:48.114Z,15.45
2022-12-08T04:08:17.411Z,16.02
2022-12-08T04:10:45.447Z,15.55
2022-12-08T04:13:13.401Z,15.10
2022-12-08T04:15:45.242Z,15.90
2022-12-08T04:18:13.555Z,16.13
2022-12-08T04:20:41.967Z,15.18
2022-12-08T04:23:12.189Z,15.07
2022-12-08T04:25:41.989Z,14.32
2022-12-08T04:28:09.969Z,15.32
2022-12-08T04:30:37.891Z,14.68
2022-12-08T04:33:05.861Z,14.27
2022-12-08T04:35:33.773Z,14.95
2022-12-08T04:38:01.854Z,14.25
2022-12-08T04:40:29.772Z,13.95
2022-12-08T04:42:59.077Z,12.70
2022-12-08T04:45:27.001Z,13.38
2022-12-08T04:47:55.065Z,13.88
2022-12-08T04:50:23.013Z,13.43
2022-12-08T04:52:51.025Z,13.20
2022-12-08T04:55:19.212Z,11.70
2022-12-08T04:57:47.538Z,11.90
2022-12-08T05:00:18.017Z,12.38
2022-12-08T05:02:46.038Z,12.45
2022-12-08T05:05:13.961Z,11.13
2022-12-08T05:07:42.065Z,12.38
2022-12-08T05:10:10.366Z,11.65
2022-12-08T05:12:38.264Z,11.00
2022-12-08T05:15:07.227Z,10.50
2022-12-08T05:17:36.559Z,11.30
2022-12-08T05:20:04.969Z,12.18
2022-12-08T05:22:33.119Z,11.73
2022-12-08T05:25:01.157Z,11.98
2022-12-08T05:27:29.088Z,11.18
2022-12-08T05:29:57.045Z,12.05
2022-12-08T05:32:24.966Z,11.68
2022-12-08T05:34:54.243Z,12.18
2022-12-08T05:37:22.161Z,10.65
2022-12-08T05:39:50.069Z,10.75
2022-12-08T05:42:23.182Z,10.45
2022-12-08T05:44:52.803Z,10.73
2022-12-08T05:47:20.987Z,10.60
2022-12-08T05:49:49.147Z,10.93
2022-12-08T05:52:18.403Z,10.45
2022-12-08T05:54:46.315Z,10.82
2022-12-08T05:57:14.220Z,9.85
2022-12-08T05:59:42.107Z,10.38
2022-12-08T06:02:10.094Z,11.00
2022-12-08T06:04:38.316Z,9.90
2022-12-08T06:07:06.215Z,10.32
2022-12-08T06:09:35.464Z,10.02
2022-12-08T06:12:03.866Z,8.35
2022-12-08T06:14:31.817Z,9.50
2022-12-08T06:16:59.970Z,10.70
2022-12-08T06:19:27.983Z,8.60
2022-12-08T06:21:55.996Z,10.18
2022-12-08T06:24:24.152Z,9.00
2022-12-08T06:26:54.507Z,8.85
2022-12-08T06:29:23.578Z,9.38
2022-12-08T06:31:52.338Z,9.40
2022-12-08T06:34:20.322Z,10.07
2022-12-08T06:36:48.235Z,9.80
2022-12-08T06:39:16.152Z,9.27
2022-12-08T06:41:57.965Z,10.35
2022-12-08T06:44:27.431Z,9.75
2022-12-08T06:46:55.376Z,9.00
2022-12-08T06:49:23.264Z,8.45
2022-12-08T06:51:51.181Z,8.60
2022-12-08T06:54:19.088Z,7.25
2022-12-08T06:56:47.101Z,9.10
2022-12-08T06:59:14.990Z,10.02
2022-12-08T07:01:44.347Z,8.20
2022-12-08T07:04:12.468Z,8.20
2022-12-08T07:06:40.829Z,8.35
2022-12-08T07:09:08.779Z,9.80
2022-12-08T07:11:36.687Z,9.35
2022-12-08T07:14:04.634Z,8.50
2022-12-08T07:16:32.662Z,8.90
2022-12-08T07:19:02.169Z,10.00
2022-12-08T07:21:30.092Z,8.63
2022-12-08T07:23:58.216Z,9.00
2022-12-08T07:26:26.795Z,8.63
2022-12-08T07:28:55.117Z,8.80
2022-12-08T07:31:24.888Z,8.85
2022-12-08T07:33:53.659Z,9.43
2022-12-08T07:36:24.021Z,9.30
2022-12-08T07:38:53.217Z,10.20
2022-12-08T07:41:23.713Z,9.75
2022-12-08T07:43:51.920Z,10.43
2022-12-08T07:46:22.035Z,9.20
2022-12-08T07:48:50.906Z,9.93
2022-12-08T07:51:19.856Z,10.85
2022-12-08T07:53:54.117Z,10.43
2022-12-08T07:56:22.982Z,9.02
2022-12-08T07:58:51.265Z,9.60
2022-12-08T08:01:21.531Z,10.77
2022-12-08T08:03:49.591Z,9.05
2022-12-08T08:06:17.983Z,10.25
2022-12-08T08:08:46.187Z,11.38
2022-12-08T08:11:21.416Z,10.23
2022-12-08T08:13:50.812Z,10.13
2022-12-08T08:16:20.032Z,11.25
2022-12-08T08:18:49.721Z,10.27
2022-12-08T08:24:06.909Z,10.57
2022-12-08T08:26:37.621Z,11.38
2022-12-08T08:29:05.654Z,10.98
2022-12-08T08:31:33.609Z,10.90
2022-12-08T08:34:06.070Z,12.05
2022-12-08T08:36:34.216Z,11.60
2022-12-08T08:39:03.084Z,12.30
2022-12-08T08:41:30.992Z,12.07
2022-12-08T08:44:00.270Z,11.82
2022-12-08T08:46:28.268Z,12.80
2022-12-08T08:48:56.324Z,12.23
2022-12-08T08:51:24.896Z,12.05
2022-12-08T08:53:52.818Z,12.50
2022-12-08T08:56:20.975Z,13.05
2022-12-08T08:58:49.733Z,12.60
2022-12-08T09:01:21.143Z,11.35
2022-12-08T09:03:49.749Z,12.20
2022-12-08T09:06:18.446Z,11.50
2022-12-08T09:08:47.478Z,11.68
2022-12-08T09:11:16.274Z,11.75
2022-12-08T09:13:44.193Z,11.40
2022-12-08T09:16:13.202Z,10.32
2022-12-08T09:18:42.678Z,11.15
2022-12-08T09:21:13.068Z,10.82
2022-12-08T09:23:41.049Z,10.35
2022-12-08T09:26:15.079Z,10.43
2022-12-08T09:28:46.278Z,10.25
2022-12-08T09:31:14.615Z,11.02
2022-12-08T09:33:44.220Z,9.75
2022-12-08T09:36:12.608Z,9.55
2022-12-08T09:38:41.039Z,9.95
2022-12-08T09:41:35.929Z,10.75
2022-12-08T09:44:32.727Z,10.98
2022-12-08T09:47:02.433Z,11.00
2022-12-08T09:49:38.816Z,10.50
2022-12-08T09:52:13.583Z,10.07
2022-12-08T09:54:41.731Z,11.20
2022-12-08T09:57:17.184Z,11.10
2022-12-08T09:59:48.705Z,11.40
2022-12-08T10:02:23.696Z,10.73
2022-12-08T10:04:56.492Z,10.15
2022-12-08T10:07:34.663Z,11.20
2022-12-08T10:10:08.530Z,9.98
2022-12-08T10:12:43.575Z,11.45
2022-12-08T10:15:34.985Z,10.68
2022-12-08T10:18:04.872Z,9.90
2022-12-08T10:20:38.440Z,10.85
2022-12-08T10:23:16.572Z,9.80
2022-12-08T10:25:47.156Z,11.40
2022-12-08T10:28:15.232Z,10.73
2022-12-08T10:30:43.979Z,11.55
2022-12-08T10:33:16.809Z,11.43
2022-12-08T10:35:48.753Z,10.15
2022-12-08T10:38:23.487Z,11.27
2022-12-08T10:40:53.639Z,10.23
2022-12-08T10:43:25.018Z,11.07
2022-12-08T10:45:53.223Z,11.23
2022-12-08T10:48:23.743Z,9.80
2022-12-08T10:50:57.425Z,9.43
2022-12-08T10:53:27.335Z,10.65
2022-12-08T10:56:08.471Z,8.93
2022-12-08T10:58:40.483Z,9.25
2022-12-08T11:01:14.334Z,9.93
2022-12-08T11:03:48.548Z,9.00
2022-12-08T11:06:20.555Z,9.43
2022-12-08T11:08:53.878Z,9.43
2022-12-08T11:11:29.184Z,9.50
2022-12-08T11:13:57.843Z,9.15
2022-12-08T11:16:26.140Z,10.18
2022-12-08T11:18:59.030Z,9.00
2022-12-08T11:21:37.663Z,9.20
2022-12-08T11:24:23.039Z,9.18
2022-12-08T11:26:54.394Z,8.90
2022-12-08T11:29:22.840Z,8.80
2022-12-08T11:31:55.695Z,9.15
2022-12-08T11:34:32.696Z,9.20
2022-12-08T11:37:03.683Z,8.05
2022-12-08T11:39:35.285Z,8.73
2022-12-08T11:42:06.035Z,8.02
2022-12-08T11:44:39.121Z,8.10
2022-12-08T11:47:14.240Z,8.68
2022-12-08T11:49:43.673Z,9.30
2022-12-08T11:52:22.297Z,7.72
2022-12-08T11:54:57.010Z,7.82
2022-12-08T11:57:27.442Z,8.75
2022-12-08T11:59:58.012Z,9.00
2022-12-08T12:02:28.773Z,8.75
2022-12-08T12:05:01.700Z,8.90
2022-12-08T12:07:55.706Z,8.52
2022-12-08T12:10:47.957Z,7.78
2022-12-08T12:13:42.901Z,8.85
2022-12-08T12:16:29.070Z,8.50
2022-12-08T12:18:59.395Z,8.60
2022-12-08T12:21:33.611Z,8.07
2022-12-08T12:24:08.735Z,8.02
2022-12-08T12:26:40.084Z,7.80
2022-12-08T12:29:14.052Z,7.18
2022-12-08T12:31:44.347Z,7.38
2022-12-08T12:34:17.985Z,7.07
2022-12-08T12:36:51.218Z,5.72
2022-12-08T12:39:24.672Z,5.88
2022-12-08T12:41:56.680Z,5.78
2022-12-08T12:44:43.442Z,5.55
2022-12-08T12:47:36.199Z,5.70
2022-12-08T12:50:09.552Z,4.95
2022-12-08T12:52:50.089Z,4.75
2022-12-08T12:55:51.833Z,5.18
2022-12-08T12:58:43.111Z,4.75
2022-12-08T13:01:44.571Z,4.85
2022-12-08T13:04:12.788Z,4.20
2022-12-08T13:06:43.788Z,4.90
2022-12-08T13:09:29.529Z,4.65
2022-12-08T13:12:00.142Z,4.40
2022-12-08T13:14:46.155Z,4.65
2022-12-08T13:17:18.473Z,4.90
2022-12-08T13:19:52.011Z,4.30
2022-12-08T13:23:01.502Z,3.88
2022-12-08T13:25:54.109Z,4.57
2022-12-08T13:28:25.944Z,4.15
2022-12-08T13:30:57.221Z,4.22
2022-12-08T13:33:31.726Z,4.45
2022-12-08T13:36:25.561Z,4.82
2022-12-08T13:38:57.704Z,4.20
2022-12-08T13:41:36.873Z,4.25
2022-12-08T13:45:03.545Z,4.70
2022-12-08T13:58:31.645Z,4.25
2022-12-08T14:01:06.572Z,5.10
2022-12-08T14:04:04.673Z,4.30
2022-12-08T14:06:37.986Z,3.85
2022-12-08T14:09:11.638Z,3.78
2022-12-08T14:11:42.280Z,4.55
2022-12-08T14:14:27.233Z,5.32
2022-12-08T14:17:06.127Z,6.05
2022-12-08T14:19:36.550Z,9.13
2022-12-08T14:22:11.439Z,9.57
2022-12-08T14:24:39.653Z,9.13
2022-12-08T14:27:10.248Z,9.02
2022-12-08T14:29:41.948Z,10.18
2022-12-08T14:32:26.776Z,9.68
2022-12-08T14:35:02.303Z,10.18
2022-12-08T14:37:33.479Z,9.20
2022-12-08T14:40:06.639Z,11.57
2022-12-08T14:42:44.724Z,12.00
2022-12-08T14:45:15.733Z,9.80
2022-12-08T14:47:44.017Z,8.68
2022-12-08T14:50:39.347Z,9.00
2022-12-08T14:53:13.889Z,9.75
2022-12-08T14:55:42.200Z,9.07
2022-12-08T14:58:18.542Z,9.68
2022-12-08T15:00:48.851Z,8.55
2022-12-08T15:03:17.874Z,9.25
2022-12-08T15:05:51.467Z,9.70
2022-12-08T15:08:20.081Z,8.60
2022-12-08T15:10:48.513Z,9.90
2022-12-08T15:13:23.977Z,9.10
2022-12-08T15:15:53.597Z,9.20
2022-12-08T15:18:29.643Z,8.43
2022-12-08T15:21:03.825Z,8.73
2022-12-08T15:23:33.670Z,8.32
2022-12-08T15:26:01.696Z,8.60
2022-12-08T15:28:30.878Z,8.45
2022-12-08T15:30:59.733Z,7.72
2022-12-08T15:33:28.080Z,8.32
2022-12-08T15:35:56.303Z,8.25
2022-12-08T15:38:28.615Z,8.70
2022-12-08T15:40:58.584Z,8.23
2022-12-08T15:43:27.075Z,8.65
2022-12-08T15:45:59.574Z,8.27
2022-12-08T15:48:30.405Z,8.80
2022-12-08T15:50:59.228Z,9.00
2022-12-08T15:53:28.583Z,7.75
2022-12-08T15:56:26.960Z,9.82
2022-12-08T15:58:55.084Z,10.20
2022-12-08T16:01:25.734Z,9.95
2022-12-08T16:04:37.273Z,10.40
2022-12-08T16:09:46.709Z,9.20
2022-12-08T16:13:13.536Z,9.50
2022-12-08T16:18:16.482Z,9.73
2022-12-08T16:21:07.382Z,8.30
2022-12-08T16:23:47.994Z,9.05
2022-12-08T16:29:08.955Z,9.55
2022-12-08T16:31:36.891Z,9.25
2022-12-08T16:34:04.847Z,8.93
2022-12-08T16:36:32.903Z,8.57
2022-12-08T16:39:01.071Z,9.20
2022-12-08T16:41:47.691Z,8.02
2022-12-08T16:44:15.617Z,8.82
2022-12-08T16:46:43.557Z,8.13
2022-12-08T16:49:11.490Z,7.22
2022-12-08T16:51:39.416Z,10.80
2022-12-08T16:54:07.393Z,8.80
2022-12-08T16:56:36.667Z,8.55
2022-12-08T16:59:05.247Z,8.73
2022-12-08T17:01:33.228Z,9.32
2022-12-08T17:06:52.856Z,10.20
2022-12-08T17:09:20.969Z,9.40
2022-12-08T17:11:50.358Z,7.78
2022-12-08T17:14:18.503Z,8.15
2022-12-08T17:16:46.652Z,7.85
2022-12-08T17:19:15.711Z,7.95
2022-12-08T17:21:44.302Z,8.73
2022-12-08T17:24:14.704Z,8.30
2022-12-08T17:26:45.110Z,8.18
2022-12-08T17:29:14.470Z,8.30
2022-12-08T17:31:42.503Z,7.63
2022-12-08T17:34:11.866Z,7.78
2022-12-08T17:36:39.852Z,8.63
2022-12-08T17:39:13.335Z,9.93
2022-12-08T17:41:44.440Z,10.00
2022-12-08T17:44:15.158Z,8.55
2022-12-08T17:46:49.160Z,7.82
2022-12-08T17:49:23.539Z,8.93
2022-12-08T17:51:54.139Z,8.15
2022-12-08T17:54:22.620Z,8.13
2022-12-08T17:56:50.777Z,9.05
2022-12-08T17:59:20.288Z,8.85
2022-12-08T18:01:48.334Z,11.18
2022-12-08T18:04:16.339Z,11.15
2022-12-08T18:06:44.281Z,9.60
2022-12-08T18:09:12.277Z,9.23
2022-12-08T18:11:40.455Z,8.18
2022-12-08T18:14:10.376Z,9.65
2022-12-08T18:16:42.117Z,9.43
2022-12-08T18:19:10.735Z,9.50
2022-12-08T18:21:39.091Z,10.23
2022-12-08T18:24:08.604Z,16.90
2022-12-08T18:26:36.726Z,14.25
2022-12-08T18:29:04.984Z,13.48
2022-12-08T18:31:33.045Z,12.55
2022-12-08T18:34:02.365Z,11.05
2022-12-08T18:36:30.326Z,12.57
2022-12-08T18:38:58.380Z,12.23
2022-12-08T18:41:27.230Z,11.35
2022-12-08T18:43:56.946Z,14.13
2022-12-08T18:46:25.653Z,25.83
2022-12-08T18:48:54.135Z,26.55
2022-12-08T18:51:25.313Z,22.65
2022-12-08T18:53:53.925Z,20.63
2022-12-08T18:56:24.890Z,14.00
2022-12-08T18:58:52.948Z,12.00
2022-12-08T19:01:21.096Z,11.73
2022-12-08T19:06:40.380Z,9.68
2022-12-08T19:09:09.256Z,10.88
2022-12-08T19:11:37.485Z,11.98
2022-12-08T19:14:06.041Z,11.65
2022-12-08T19:16:34.547Z,10.60
2022-12-08T19:19:02.944Z,10.77
2022-12-08T19:21:30.979Z,11.65
2022-12-08T19:24:00.461Z,11.68
2022-12-08T19:26:29.526Z,10.82
2022-12-08T19:28:58.190Z,10.50
2022-12-08T19:31:26.437Z,10.30
2022-12-08T19:33:54.727Z,11.85
2022-12-08T19:36:24.811Z,11.15
2022-12-08T19:39:10.745Z,10.10
2022-12-08T19:41:57.598Z,10.70
2022-12-08T19:44:45.268Z,11.65
2022-12-08T19:47:13.386Z,10.50
2022-12-08T19:49:41.494Z,11.75
2022-12-08T19:52:09.655Z,11.10
2022-12-08T19:54:37.836Z,12.68
2022-12-08T19:57:07.186Z,13.45
2022-12-08T19:59:35.149Z,12.18
2022-12-08T20:02:03.130Z,11.27
2022-12-08T20:04:31.196Z,11.52
2022-12-08T20:06:59.138Z,12.10
2022-12-08T20:09:27.085Z,11.10
2022-12-08T20:11:55.587Z,13.32
2022-12-08T20:14:25.297Z,12.45
2022-12-08T20:16:53.418Z,12.60
2022-12-08T20:19:21.441Z,11.40
2022-12-08T20:21:49.759Z,16.70
2022-12-08T20:24:18.036Z,15.00
2022-12-08T20:26:45.965Z,13.50
2022-12-08T20:29:16.824Z,11.23
2022-12-08T20:31:46.400Z,11.43
2022-12-08T20:34:16.047Z,10.27
2022-12-08T20:36:44.536Z,11.60
2022-12-08T20:39:13.674Z,12.25
2022-12-08T20:41:41.925Z,12.55
2022-12-08T20:44:10.196Z,11.85
2022-12-08T20:46:38.652Z,11.20
2022-12-08T20:49:08.085Z,12.82
2022-12-08T20:51:36.438Z,12.50
2022-12-08T20:54:05.532Z,14.80
2022-12-08T20:56:33.569Z,12.50
2022-12-08T20:59:01.508Z,13.13
2022-12-08T21:01:29.809Z,12.73
2022-12-08T21:03:58.151Z,12.45
2022-12-08T21:06:28.139Z,11.88
2022-12-08T21:08:56.461Z,12.18
2022-12-08T21:11:24.510Z,11.70
2022-12-08T21:13:52.473Z,11.13
2022-12-08T21:16:20.533Z,11.85
2022-12-08T21:18:48.712Z,12.48
2022-12-08T21:21:17.821Z,13.32
2022-12-08T21:23:47.306Z,12.93
2022-12-08T21:26:17.874Z,12.35
2022-12-08T21:28:47.271Z,13.60
2022-12-08T21:31:17.605Z,12.60
2022-12-08T21:33:46.106Z,13.75
2022-12-08T21:36:16.267Z,13.23
2022-12-08T21:38:45.056Z,12.52
2022-12-08T21:41:16.625Z,13.60
2022-12-08T21:43:44.717Z,13.45
2022-12-08T21:46:16.789Z,13.57
2022-12-08T21:48:44.986Z,13.40
2022-12-08T21:51:13.308Z,13.77
2022-12-08T21:53:41.389Z,14.45
2022-12-08T21:56:10.810Z,14.38
2022-12-08T21:58:40.605Z,13.55
2022-12-08T22:01:09.432Z,13.27
2022-12-08T22:03:38.447Z,14.10
2022-12-08T22:06:07.090Z,13.20
2022-12-08T22:08:35.326Z,14.02
2022-12-08T22:11:04.143Z,13.63
2022-12-08T22:13:34.655Z,12.57
2022-12-08T22:16:07.094Z,14.00
2022-12-08T22:18:35.601Z,12.75
2022-12-08T22:21:09.758Z,13.70
2022-12-08T22:23:38.440Z,13.27
2022-12-08T22:26:07.547Z,12.45
2022-12-08T22:28:37.872Z,13.75
2022-12-08T22:31:11.321Z,11.93
2022-12-08T22:33:40.634Z,13.25
2022-12-08T22:36:14.279Z,11.65
2022-12-08T22:38:42.651Z,13.02
2022-12-08T22:41:10.764Z,12.48
2022-12-08T22:43:39.186Z,13.27
2022-12-08T22:46:12.281Z,13.60
2022-12-08T22:48:41.016Z,14.18
2022-12-08T22:51:09.358Z,12.73
2022-12-08T22:53:37.486Z,13.45
2022-12-08T22:56:05.783Z,11.95
2022-12-08T22:58:34.348Z,12.48
2022-12-08T23:01:02.544Z,12.57
2022-12-08T23:03:31.944Z,13.45
2022-12-08T23:06:00.050Z,12.32
2022-12-08T23:08:28.335Z,12.35
2022-12-08T23:10:57.484Z,12.77
2022-12-08T23:13:25.509Z,13.00
2022-12-08T23:15:54.407Z,14.65
2022-12-08T23:18:22.460Z,13.73
2022-12-08T23:20:52.107Z,12.88
2022-12-08T23:23:20.099Z,13.20
2022-12-08T23:25:48.070Z,12.57
2022-12-08T23:28:16.197Z,14.18
2022-12-08T23:30:44.274Z,11.98
2022-12-08T23:33:12.453Z,13.05
2022-12-08T23:35:40.615Z,12.18
2022-12-08T23:38:10.332Z,12.32
2022-12-08T23:40:38.541Z,11.70
2022-12-08T23:43:07.098Z,12.85
2022-12-08T23:45:35.341Z,13.13
2022-12-08T23:48:03.575Z,12.20
2022-12-08T23:50:31.649Z,12.80
2022-12-08T23:53:00.204Z,11.70
2022-12-08T23:55:29.560Z,12.68
2022-12-08T23:57:57.754Z,13.35
